Time;durP1;ratioP1;P1;durP2;ratioP2;P2;SDS_P1;SDS_P2;PMS_P1;PMS_P2;Temp;Humidity;BMP_temperature;BMP_pressure;BME280_temperature;BME280_humidity;BME280_pressure;Samples;Min_cycle;Max_cycle;Signal;HPM_P1;HPM_P2
2021/08/11 00:01:34;;;;;;;3.67;3.37;;;19.60;99.90;;;;;;5033667;28;20448;-70
2021/08/11 00:04:02;;;;;;;3.37;3.07;;;19.60;99.90;;;;;;5033923;28;20533;-70
2021/08/11 00:06:29;;;;;;;5.63;2.93;;;19.70;99.90;;;;;;5033457;28;20542;-70
2021/08/11 00:08:56;;;;;;;4.67;3.60;;;19.60;99.90;;;;;;5033375;28;20986;-70
2021/08/11 00:11:22;;;;;;;3.40;3.10;;;19.60;99.90;;;;;;5033539;28;20539;-70
2021/08/11 00:13:49;;;;;;;4.83;3.73;;;19.70;99.90;;;;;;5033458;28;20566;-70
2021/08/11 00:16:16;;;;;;;4.80;3.78;;;19.60;99.90;;;;;;5033106;28;20459;-70
2021/08/11 00:18:43;;;;;;;3.33;3.00;;;19.70;99.90;;;;;;5033285;28;20228;-70
2021/08/11 00:21:11;;;;;;;4.00;3.60;;;19.70;99.90;;;;;;5033532;28;20542;-70
2021/08/11 00:23:38;;;;;;;6.37;3.77;;;19.70;99.90;;;;;;5033421;28;20798;-70
2021/08/11 00:26:05;;;;;;;5.50;3.72;;;19.70;99.90;;;;;;5033259;28;20444;-70
2021/08/11 00:28:32;;;;;;;3.83;3.30;;;19.80;99.90;;;;;;5033123;28;20213;-70
2021/08/11 00:30:59;;;;;;;4.35;3.65;;;19.70;99.90;;;;;;5033431;28;20448;-70
2021/08/11 00:33:25;;;;;;;4.70;3.70;;;19.60;99.90;;;;;;5033200;28;20694;-70
2021/08/11 00:35:52;;;;;;;5.55;3.75;;;19.70;99.90;;;;;;5033033;28;20551;-70
2021/08/11 00:38:22;;;;;;;4.03;3.67;;;19.60;99.90;;;;;;5033206;28;20205;-70
2021/08/11 00:40:49;;;;;;;3.95;3.55;;;19.60;99.90;;;;;;5033359;28;20456;-70
2021/08/11 00:43:16;;;;;;;4.35;3.70;;;19.50;99.90;;;;;;5033044;28;20675;-70
2021/08/11 00:45:43;;;;;;;3.47;3.17;;;19.40;99.90;;;;;;5032964;28;20300;-70
2021/08/11 00:48:11;;;;;;;4.38;3.40;;;19.50;99.90;;;;;;5033198;28;20210;-70
2021/08/11 00:50:39;;;;;;;4.03;3.40;;;19.50;99.90;;;;;;5032833;28;20778;-70
2021/08/11 00:53:07;;;;;;;4.20;3.72;;;19.40;99.90;;;;;;5034698;28;20225;-70
2021/08/11 00:55:38;;;;;;;5.22;3.90;;;19.50;99.90;;;;;;5036903;28;20211;-70
2021/08/11 00:58:09;;;;;;;4.40;3.40;;;19.40;99.90;;;;;;5036885;28;20216;-71
2021/08/11 01:00:37;;;;;;;5.10;3.60;;;19.30;99.90;;;;;;5036825;28;20238;-70
2021/08/11 01:03:05;;;;;;;4.95;3.97;;;19.40;99.90;;;;;;5036872;28;20561;-70
2021/08/11 01:05:33;;;;;;;3.28;2.97;;;19.30;99.90;;;;;;5036433;28;20208;-70
2021/08/11 01:08:00;;;;;;;3.65;3.30;;;19.40;99.90;;;;;;5037266;28;20204;-70
2021/08/11 01:10:28;;;;;;;4.60;3.35;;;19.50;99.90;;;;;;5036806;28;20311;-70
2021/08/11 01:12:57;;;;;;;4.05;3.65;;;19.40;99.90;;;;;;5036627;28;20224;-70
2021/08/11 01:15:24;;;;;;;3.88;3.10;;;19.30;99.90;;;;;;5036362;28;20312;-71
2021/08/11 01:17:50;;;;;;;4.20;3.30;;;19.30;99.90;;;;;;5036509;28;20205;-70
2021/08/11 01:20:17;;;;;;;4.90;3.53;;;19.30;99.90;;;;;;5037306;28;20588;-70
2021/08/11 01:22:48;;;;;;;3.80;3.50;;;19.10;99.90;;;;;;5036541;28;20287;-70
2021/08/11 01:25:23;;;;;;;4.55;3.85;;;19.10;99.90;;;;;;5036275;28;20204;-70
2021/08/11 01:28:12;;;;;;;3.92;3.45;;;19.00;99.90;;;;;;5036446;28;20203;-70
2021/08/11 01:30:50;;;;;;;4.70;3.80;;;19.00;99.90;;;;;;5034225;28;20315;-70
2021/08/11 01:33:45;;;;;;;3.95;3.55;;;19.10;99.90;;;;;;5036272;28;20224;-70
2021/08/11 01:36:20;;;;;;;4.95;3.60;;;19.20;99.90;;;;;;5036050;28;20204;-70
2021/08/11 01:38:55;;;;;;;4.55;3.58;;;19.30;99.90;;;;;;5036279;28;20277;-70
2021/08/11 01:41:28;;;;;;;5.05;3.85;;;19.20;99.90;;;;;;5036226;28;20286;-70
2021/08/11 01:43:57;;;;;;;4.60;3.80;;;19.30;99.90;;;;;;5036161;28;20210;-70
2021/08/11 01:46:26;;;;;;;3.50;3.03;;;19.20;99.90;;;;;;5035943;28;20208;-70
2021/08/11 01:48:58;;;;;;;4.15;3.70;;;19.20;99.90;;;;;;5035997;28;20229;-70
2021/08/11 01:51:24;;;;;;;4.43;3.70;;;19.30;99.90;;;;;;5036056;28;20196;-70
2021/08/11 01:53:51;;;;;;;4.43;3.50;;;19.30;99.90;;;;;;5035694;28;20228;-70
2021/08/11 01:56:19;;;;;;;4.50;3.58;;;19.20;99.90;;;;;;5035775;28;20211;-70
2021/08/11 01:58:47;;;;;;;5.63;3.90;;;19.10;99.90;;;;;;5035608;28;20732;-70
2021/08/11 02:01:14;;;;;;;6.22;4.47;;;19.10;99.90;;;;;;5035889;28;20207;-70
2021/08/11 02:03:40;;;;;;;4.25;3.42;;;19.00;99.90;;;;;;5035164;28;20206;-70
2021/08/11 02:06:09;;;;;;;4.90;3.83;;;19.00;99.90;;;;;;5035139;28;20208;-70
2021/08/11 02:08:36;;;;;;;6.10;3.95;;;19.00;99.90;;;;;;5035637;28;20228;-70
2021/08/11 02:11:03;;;;;;;4.05;3.50;;;19.10;99.90;;;;;;5035680;28;20208;-70
2021/08/11 02:13:31;;;;;;;5.05;3.88;;;19.00;99.90;;;;;;5035607;28;20629;-70
2021/08/11 02:15:57;;;;;;;3.83;3.42;;;19.00;99.90;;;;;;5035095;28;20211;-70
2021/08/11 02:18:24;;;;;;;3.85;3.38;;;19.00;99.90;;;;;;5035370;28;20667;-70
2021/08/11 02:20:51;;;;;;;4.88;3.40;;;19.00;99.90;;;;;;5035527;28;20210;-70
2021/08/11 02:23:19;;;;;;;4.68;3.55;;;19.00;99.90;;;;;;5035225;28;20558;-70
2021/08/11 02:25:50;;;;;;;4.47;3.40;;;18.70;99.90;;;;;;5034966;28;20697;-70
2021/08/11 02:28:26;;;;;;;3.67;3.10;;;18.80;99.90;;;;;;5035279;28;20211;-70
2021/08/11 02:30:59;;;;;;;3.97;3.58;;;18.80;99.90;;;;;;5035060;28;20643;-70
2021/08/11 02:33:31;;;;;;;3.55;3.22;;;18.70;99.90;;;;;;5035194;28;20323;-70
2021/08/11 02:36:01;;;;;;;3.85;3.40;;;18.50;99.90;;;;;;5035061;28;20208;-70
2021/08/11 02:38:34;;;;;;;3.92;3.35;;;18.50;99.90;;;;;;5034966;28;20210;-70
2021/08/11 02:41:14;;;;;;;4.28;3.88;;;18.50;99.90;;;;;;5035124;28;20200;-70
2021/08/11 02:43:48;;;;;;;4.30;3.67;;;18.50;99.90;;;;;;5035009;28;20206;-70
2021/08/11 02:46:19;;;;;;;3.53;3.22;;;18.50;99.90;;;;;;5034788;28;20213;-70
2021/08/11 02:48:53;;;;;;;5.40;3.60;;;18.60;99.90;;;;;;5034837;28;20223;-70
2021/08/11 02:51:20;;;;;;;4.03;3.60;;;18.50;99.90;;;;;;5034958;28;20203;-70
2021/08/11 02:53:49;;;;;;;4.00;3.60;;;18.50;99.90;;;;;;5034679;28;20228;-70
2021/08/11 02:56:17;;;;;;;4.65;4.13;;;18.40;99.90;;;;;;5034647;28;20204;-70
2021/08/11 02:58:44;;;;;;;4.78;3.40;;;18.30;99.90;;;;;;5034787;28;20236;-70
2021/08/11 03:01:11;;;;;;;5.35;3.95;;;18.30;99.90;;;;;;5034789;28;20665;-70
2021/08/11 03:03:38;;;;;;;4.55;3.85;;;18.20;99.90;;;;;;5034470;28;20576;-70
2021/08/11 03:06:06;;;;;;;4.97;3.83;;;18.10;99.90;;;;;;5034222;28;20205;-70
2021/08/11 03:08:34;;;;;;;4.18;3.65;;;18.00;99.90;;;;;;5034196;28;20310;-70
2021/08/11 03:11:03;;;;;;;3.72;3.20;;;17.90;99.90;;;;;;5034596;28;20204;-70
2021/08/11 03:13:30;;;;;;;7.10;3.63;;;17.90;99.90;;;;;;5034406;28;20224;-70
2021/08/11 03:15:57;;;;;;;4.30;3.90;;;17.90;99.90;;;;;;5033669;28;20303;-70
2021/08/11 03:18:24;;;;;;;6.60;4.20;;;18.00;99.90;;;;;;5034351;28;20638;-70
2021/08/11 03:20:51;;;;;;;4.38;3.97;;;18.00;99.90;;;;;;5034393;28;20200;-70
2021/08/11 03:23:18;;;;;;;6.45;3.90;;;18.00;99.90;;;;;;5034327;28;20211;-70
2021/08/11 03:25:45;;;;;;;4.97;3.40;;;18.00;99.90;;;;;;5033882;28;20295;-70
2021/08/11 03:28:13;;;;;;;5.18;3.80;;;18.10;99.90;;;;;;5034069;28;20210;-70
2021/08/11 03:30:42;;;;;;;4.70;3.58;;;18.10;99.90;;;;;;5034228;28;20224;-70
2021/08/11 03:33:09;;;;;;;4.30;3.90;;;18.10;99.90;;;;;;5033983;28;20709;-70
2021/08/11 03:35:35;;;;;;;5.70;3.72;;;18.10;99.90;;;;;;5033626;28;20291;-70
2021/08/11 03:38:02;;;;;;;4.40;3.78;;;18.10;99.90;;;;;;5034058;28;20238;-70
2021/08/11 03:40:29;;;;;;;4.70;3.70;;;18.10;99.90;;;;;;5033860;28;20224;-70
2021/08/11 03:42:56;;;;;;;5.07;3.58;;;18.00;99.90;;;;;;5033870;28;20737;-70
2021/08/11 03:45:25;;;;;;;4.35;3.80;;;18.10;99.90;;;;;;5033605;28;20292;-70
2021/08/11 03:47:51;;;;;;;5.28;3.92;;;18.10;99.90;;;;;;5033816;28;20561;-70
2021/08/11 03:50:21;;;;;;;4.20;3.80;;;18.10;99.90;;;;;;5033513;28;20258;-70
2021/08/11 03:52:48;;;;;;;4.50;3.75;;;18.20;99.90;;;;;;5033600;28;20245;-70
2021/08/11 03:55:16;;;;;;;6.20;4.03;;;18.10;99.90;;;;;;5033757;28;20567;-70
2021/08/11 03:57:42;;;;;;;4.55;3.65;;;18.10;99.90;;;;;;5033767;28;20298;-70
2021/08/11 04:00:14;;;;;;;5.03;4.00;;;18.00;99.90;;;;;;5033407;28;20231;-70
2021/08/11 04:02:42;;;;;;;5.65;3.97;;;18.00;99.90;;;;;;5033809;28;20287;-70
2021/08/11 04:05:10;;;;;;;3.70;3.40;;;18.00;99.90;;;;;;5033507;28;20200;-70
2021/08/11 04:07:37;;;;;;;4.93;4.22;;;17.90;99.90;;;;;;5033610;28;20200;-70
2021/08/11 04:10:06;;;;;;;4.80;4.40;;;17.90;99.90;;;;;;5033276;28;20227;-70
2021/08/11 04:12:33;;;;;;;4.72;4.30;;;18.00;99.90;;;;;;5033486;28;20204;-70
2021/08/11 04:15:01;;;;;;;5.03;4.55;;;17.90;99.90;;;;;;5033252;28;20224;-70
2021/08/11 04:17:28;;;;;;;5.22;3.78;;;17.70;99.90;;;;;;5033252;28;20246;-70
2021/08/11 04:19:56;;;;;;;5.07;4.32;;;17.60;99.90;;;;;;5033475;28;20315;-70
2021/08/11 04:22:23;;;;;;;4.60;3.75;;;17.40;99.90;;;;;;5033488;28;20207;-70
2021/08/11 04:24:50;;;;;;;4.43;4.03;;;17.50;99.90;;;;;;5033277;28;20548;-69
2021/08/11 04:27:17;;;;;;;5.05;3.78;;;17.60;99.90;;;;;;5033684;28;20658;-70
2021/08/11 04:29:44;;;;;;;5.22;4.00;;;17.70;99.90;;;;;;5037750;28;20235;-70
2021/08/11 04:32:11;;;;;;;5.07;4.57;;;17.70;99.90;;;;;;5037530;28;20311;-70
2021/08/11 04:34:38;;;;;;;4.45;3.10;;;17.80;99.90;;;;;;5037385;28;20228;-70
2021/08/11 04:37:06;;;;;;;4.70;4.20;;;17.80;99.90;;;;;;5037249;28;20235;-70
2021/08/11 04:39:33;;;;;;;4.85;4.30;;;17.80;99.90;;;;;;5037143;28;20228;-70
2021/08/11 04:42:00;;;;;;;5.15;4.45;;;17.90;99.90;;;;;;5037596;28;20200;-70
2021/08/11 04:44:27;;;;;;;4.60;3.70;;;18.00;99.90;;;;;;5037699;28;20294;-70
2021/08/11 04:46:55;;;;;;;4.97;4.00;;;18.00;99.90;;;;;;5037070;28;20242;-70
2021/08/11 04:49:22;;;;;;;4.10;3.78;;;18.00;99.90;;;;;;5036842;28;20319;-70
2021/08/11 04:51:49;;;;;;;4.43;3.90;;;18.00;99.90;;;;;;5037207;28;20211;-70
2021/08/11 04:54:17;;;;;;;5.10;4.60;;;18.00;99.90;;;;;;5036795;28;20234;-70
2021/08/11 04:56:44;;;;;;;6.30;3.85;;;18.10;99.90;;;;;;5036867;28;20299;-70
2021/08/11 04:59:11;;;;;;;4.70;3.78;;;18.10;99.90;;;;;;5037300;28;20224;-70
2021/08/11 05:01:37;;;;;;;4.30;3.90;;;18.10;99.90;;;;;;5036991;28;20211;-70
2021/08/11 05:04:04;;;;;;;4.78;4.25;;;17.90;99.90;;;;;;5036819;28;20296;-70
2021/08/11 05:06:31;;;;;;;4.15;3.65;;;17.80;99.90;;;;;;5036765;28;20628;-70
2021/08/11 05:08:58;;;;;;;4.38;3.75;;;17.90;99.90;;;;;;5037031;28;20224;-70
2021/08/11 05:11:26;;;;;;;5.05;3.97;;;17.90;99.90;;;;;;5036826;28;20296;-70
2021/08/11 05:13:53;;;;;;;4.82;4.13;;;17.90;99.90;;;;;;5036766;28;20314;-70
2021/08/11 05:16:20;;;;;;;4.13;3.70;;;17.90;99.90;;;;;;5036338;28;20223;-71
2021/08/11 05:18:46;;;;;;;5.13;4.32;;;18.00;99.90;;;;;;5036612;28;20226;-70
2021/08/11 05:21:13;;;;;;;4.05;3.60;;;18.10;99.90;;;;;;5036671;28;20298;-71
2021/08/11 05:23:41;;;;;;;4.68;4.10;;;18.00;99.90;;;;;;5036559;28;20216;-70
2021/08/11 05:26:08;;;;;;;4.40;3.55;;;18.00;99.90;;;;;;5036370;28;20291;-70
2021/08/11 05:28:36;;;;;;;4.38;3.90;;;18.00;99.90;;;;;;5036382;28;20204;-70
2021/08/11 05:31:03;;;;;;;4.70;3.97;;;18.00;99.90;;;;;;5036504;28;20214;-70
2021/08/11 05:33:29;;;;;;;6.32;5.05;;;18.00;99.90;;;;;;5036206;28;20204;-70
2021/08/11 05:35:56;;;;;;;5.32;4.50;;;17.90;99.90;;;;;;5036036;28;20247;-70
2021/08/11 05:38:23;;;;;;;5.00;4.50;;;17.90;99.90;;;;;;5036010;28;20214;-71
2021/08/11 05:40:50;;;;;;;9.05;4.65;;;17.80;99.90;;;;;;5036608;28;20204;-70
2021/08/11 05:43:17;;;;;;;5.28;4.53;;;17.80;99.90;;;;;;5036198;28;20740;-71
2021/08/11 05:45:46;;;;;;;5.60;5.00;;;17.70;99.90;;;;;;5035886;28;20287;-70
2021/08/11 05:48:13;;;;;;;5.95;5.40;;;17.70;99.90;;;;;;5035844;28;20299;-71
2021/08/11 05:50:40;;;;;;;8.27;4.78;;;17.70;99.90;;;;;;5036117;28;20315;-71
2021/08/11 05:53:07;;;;;;;6.53;5.93;;;17.80;99.90;;;;;;5035769;28;20294;-70
2021/08/11 05:55:33;;;;;;;5.60;5.10;;;17.80;99.90;;;;;;5035777;28;20228;-70
2021/08/11 05:58:01;;;;;;;6.53;5.35;;;17.80;99.90;;;;;;5035955;28;20200;-70
2021/08/11 06:00:28;;;;;;;6.28;5.35;;;17.90;99.90;;;;;;5035879;28;20224;-70
2021/08/11 06:02:58;;;;;;;6.65;5.40;;;17.90;99.90;;;;;;5035960;28;20208;-70
2021/08/11 06:05:25;;;;;;;8.90;5.75;;;17.90;99.90;;;;;;5035521;28;20295;-70
2021/08/11 06:07:52;;;;;;;5.47;4.72;;;18.00;99.90;;;;;;5035722;28;20214;-71
2021/08/11 06:10:19;;;;;;;5.85;5.25;;;18.10;99.90;;;;;;5035390;28;20714;-71
2021/08/11 06:12:47;;;;;;;6.63;5.30;;;18.00;99.90;;;;;;5035668;28;20216;-71
2021/08/11 06:15:14;;;;;;;5.95;4.80;;;18.10;99.90;;;;;;5035316;28;20231;-70
2021/08/11 06:17:44;;;;;;;6.00;5.00;;;18.20;99.90;;;;;;5035511;28;20208;-70
2021/08/11 06:20:14;;;;;;;6.57;5.00;;;18.20;99.90;;;;;;5035586;28;20220;-70
2021/08/11 06:22:40;;;;;;;6.25;4.93;;;18.30;99.90;;;;;;5035477;28;20291;-70
2021/08/11 06:25:08;;;;;;;7.05;5.25;;;18.40;99.90;;;;;;5035237;28;20227;-70
2021/08/11 06:27:35;;;;;;;6.18;4.95;;;18.50;99.90;;;;;;5035474;28;20208;-71
2021/08/11 06:30:02;;;;;;;5.00;4.50;;;18.70;99.90;;;;;;5035271;28;20234;-71
2021/08/11 06:32:29;;;;;;;5.88;5.30;;;18.70;99.90;;;;;;5035448;28;20208;-71
2021/08/11 06:34:56;;;;;;;6.90;5.05;;;18.80;99.90;;;;;;5034839;28;20281;-71
2021/08/11 06:37:24;;;;;;;6.10;4.80;;;18.90;99.90;;;;;;5034970;28;20664;-71
2021/08/11 06:39:51;;;;;;;6.82;4.78;;;19.00;99.90;;;;;;5035204;28;20230;-70
2021/08/11 06:42:18;;;;;;;4.82;4.28;;;19.20;99.90;;;;;;5034905;28;20247;-71
2021/08/11 06:44:45;;;;;;;6.23;4.90;;;19.30;99.90;;;;;;5035017;28;20319;-71
2021/08/11 06:47:11;;;;;;;5.40;4.53;;;19.50;99.90;;;;;;5034950;28;20443;-71
2021/08/11 06:49:38;;;;;;;5.40;4.90;;;19.50;99.90;;;;;;5034914;28;20526;-70
2021/08/11 06:52:05;;;;;;;6.50;5.47;;;19.60;99.90;;;;;;5034252;28;20919;-70
2021/08/11 06:54:33;;;;;;;5.50;4.60;;;19.70;99.90;;;;;;5034682;28;20566;-71
2021/08/11 06:57:00;;;;;;;5.33;4.83;;;19.70;99.90;;;;;;5034722;28;20538;-71
2021/08/11 06:59:27;;;;;;;6.33;4.90;;;19.80;99.90;;;;;;5034557;28;20471;-71
2021/08/11 07:01:54;;;;;;;4.83;4.43;;;19.80;99.90;;;;;;5034721;28;20795;-71
2021/08/11 07:04:20;;;;;;;4.87;4.10;;;19.90;99.90;;;;;;5034684;28;20446;-71
2021/08/11 07:06:47;;;;;;;4.97;4.27;;;20.00;99.90;;;;;;5034312;28;20544;-70
2021/08/11 07:09:16;;;;;;;5.13;4.63;;;20.10;99.90;;;;;;5034803;28;20554;-71
2021/08/11 07:11:44;;;;;;;5.70;5.20;;;20.10;99.90;;;;;;5034626;28;20544;-71
2021/08/11 07:14:10;;;;;;;5.00;4.47;;;20.10;99.90;;;;;;5034354;28;20908;-70
2021/08/11 07:16:38;;;;;;;7.63;4.57;;;20.00;99.90;;;;;;5034054;28;20459;-71
2021/08/11 07:19:05;;;;;;;6.47;5.23;;;19.90;99.90;;;;;;5034421;28;20876;-71
2021/08/11 07:21:31;;;;;;;6.83;4.70;;;20.00;99.90;;;;;;5034443;28;20451;-71
2021/08/11 07:23:58;;;;;;;6.50;5.17;;;19.90;99.90;;;;;;5034462;28;20941;-70
2021/08/11 07:26:26;;;;;;;6.00;5.30;;;19.90;99.90;;;;;;5033922;28;20863;-70
2021/08/11 07:28:54;;;;;;;5.50;4.90;;;20.00;99.90;;;;;;5034134;28;20555;-70
2021/08/11 07:31:21;;;;;;;6.53;5.70;;;20.00;99.90;;;;;;5033940;28;20538;-70
2021/08/11 07:33:48;;;;;;;6.37;5.23;;;20.10;99.90;;;;;;5034159;28;20794;-70
2021/08/11 07:36:14;;;;;;;5.33;4.83;;;20.20;99.90;;;;;;5033747;28;20930;-70
2021/08/11 07:38:41;;;;;;;4.30;3.90;;;20.20;99.90;;;;;;5033992;28;20463;-70
2021/08/11 07:41:08;;;;;;;4.20;3.90;;;20.30;99.90;;;;;;5033733;28;20536;-70
2021/08/11 07:43:35;;;;;;;5.20;4.70;;;20.40;99.90;;;;;;5034040;28;20505;-70
2021/08/11 07:46:03;;;;;;;4.53;4.13;;;20.40;99.90;;;;;;5033573;28;20443;-70
2021/08/11 07:48:30;;;;;;;5.10;4.30;;;20.50;99.90;;;;;;5033826;28;20522;-70
2021/08/11 07:50:58;;;;;;;5.97;5.27;;;20.60;99.90;;;;;;5033926;28;20816;-70
2021/08/11 07:53:25;;;;;;;7.30;4.93;;;20.70;99.90;;;;;;5033852;28;20450;-70
2021/08/11 07:55:52;;;;;;;8.67;5.30;;;20.90;99.90;;;;;;5033300;28;20848;-70
2021/08/11 07:58:24;;;;;;;7.87;5.60;;;20.80;99.90;;;;;;5033764;28;20445;-70
2021/08/11 08:00:51;;;;;;;5.83;5.03;;;20.80;99.90;;;;;;5033855;28;20438;-70
2021/08/11 08:03:19;;;;;;;6.60;6.00;;;20.90;99.90;;;;;;5032828;28;20454;-70
2021/08/11 08:05:46;;;;;;;7.37;5.20;;;20.90;99.90;;;;;;5033362;28;20449;-71
2021/08/11 08:08:13;;;;;;;9.80;5.70;;;20.90;99.90;;;;;;5033549;28;20490;-71
2021/08/11 08:10:39;;;;;;;7.17;6.07;;;21.00;99.90;;;;;;5033627;28;20469;-71
2021/08/11 08:13:06;;;;;;;5.03;4.53;;;21.00;99.90;;;;;;5033377;28;20481;-71
2021/08/11 08:15:33;;;;;;;7.07;4.90;;;21.30;99.90;;;;;;5033146;28;20486;-71
2021/08/11 08:18:00;;;;;;;9.50;6.03;;;22.20;99.90;;;;;;5033767;28;20452;-71
2021/08/11 08:20:29;;;;;;;6.83;6.23;;;23.60;99.90;;;;;;5033506;28;20506;-71
2021/08/11 08:22:57;;;;;;;5.90;5.30;;;25.20;99.90;;;;;;5033470;28;20443;-71
2021/08/11 08:25:24;;;;;;;5.40;4.90;;;25.90;99.90;;;;;;5033334;28;20445;-71
2021/08/11 08:27:52;;;;;;;5.23;4.73;;;26.20;99.90;;;;;;5033444;28;20529;-71
2021/08/11 08:30:20;;;;;;;5.07;4.60;;;25.90;99.90;;;;;;5033121;28;20473;-71
2021/08/11 08:32:49;;;;;;;5.93;5.40;;;26.10;99.90;;;;;;5033426;28;20447;-71
2021/08/11 08:35:16;;;;;;;5.17;4.67;;;26.40;99.90;;;;;;5033035;28;20997;-71
2021/08/11 08:37:44;;;;;;;5.70;5.07;;;27.40;99.90;;;;;;5033373;28;20439;-71
2021/08/11 08:40:13;;;;;;;5.87;5.37;;;27.20;99.20;;;;;;5033326;28;20551;-71
2021/08/11 08:42:42;;;;;;;5.43;4.93;;;26.70;99.70;;;;;;5033296;28;20443;-71
2021/08/11 08:45:10;;;;;;;5.40;4.50;;;26.00;99.90;;;;;;5033341;28;20541;-71
2021/08/11 08:47:38;;;;;;;5.07;4.57;;;25.40;99.90;;;;;;5033299;28;20439;-71
2021/08/11 08:50:07;;;;;;;5.40;4.90;;;25.00;99.90;;;;;;5033021;28;21000;-71
2021/08/11 08:52:34;;;;;;;5.40;4.90;;;24.80;99.90;;;;;;5033239;28;20450;-71
2021/08/11 08:55:03;;;;;;;5.73;4.50;;;24.60;99.90;;;;;;5032978;28;20486;-70
2021/08/11 08:57:30;;;;;;;6.07;4.40;;;24.60;99.90;;;;;;5033182;28;20453;-71
2021/08/11 08:59:57;;;;;;;4.80;4.27;;;24.60;99.90;;;;;;5033137;28;20472;-71
2021/08/11 09:02:24;;;;;;;4.33;3.93;;;24.50;99.90;;;;;;5033136;28;20549;-71
2021/08/11 09:04:51;;;;;;;4.73;4.30;;;24.60;99.90;;;;;;5032702;28;20481;-71
2021/08/11 09:07:19;;;;;;;4.90;3.80;;;25.00;99.90;;;;;;5033141;28;20445;-71
2021/08/11 09:09:47;;;;;;;4.80;4.37;;;25.70;99.90;;;;;;5033123;28;20896;-70
2021/08/11 09:12:17;;;;;;;4.10;3.80;;;26.40;99.90;;;;;;5033081;28;20443;-71
2021/08/11 09:14:46;;;;;;;4.50;4.10;;;27.80;99.30;;;;;;5035412;28;20538;-72
2021/08/11 09:17:14;;;;;;;4.20;3.40;;;29.90;94.50;;;;;;5036618;28;20464;-72
2021/08/11 09:19:44;;;;;;;3.50;3.20;;;32.10;90.40;;;;;;5036387;28;20498;-71
2021/08/11 09:22:12;;;;;;;3.80;3.50;;;34.10;79.70;;;;;;5036616;28;20529;-69
2021/08/11 09:24:41;;;;;;;3.97;3.67;;;35.70;67.60;;;;;;5036423;28;20470;-69
2021/08/11 09:27:21;;;;;;;3.60;3.40;;;37.00;60.50;;;;;;5036359;28;20538;-69
2021/08/11 09:30:02;;;;;;;5.03;4.43;;;37.40;56.80;;;;;;5036513;28;20565;-69
2021/08/11 09:32:29;;;;;;;3.60;3.30;;;38.20;54.80;;;;;;5036469;28;20538;-69
2021/08/11 09:34:56;;;;;;;3.50;3.30;;;39.00;50.30;;;;;;5036142;28;20555;-70
2021/08/11 09:37:37;;;;;;;3.90;3.67;;;40.30;47.50;;;;;;5036219;28;20450;-69
2021/08/11 09:40:15;;;;;;;3.63;3.40;;;39.90;48.10;;;;;;5037010;28;20474;-70
2021/08/11 09:42:45;;;;;;;3.60;3.33;;;40.50;47.40;;;;;;5036277;28;20443;-70
2021/08/11 09:45:12;;;;;;;3.63;3.40;;;40.60;46.40;;;;;;5036018;28;20454;-70
2021/08/11 09:47:53;;;;;;;3.70;3.40;;;39.60;45.80;;;;;;5036502;28;20445;-69
2021/08/11 09:50:31;;;;;;;3.60;3.13;;;38.60;47.60;;;;;;5036039;28;20512;-69
2021/08/11 09:52:59;;;;;;;3.10;2.90;;;38.10;50.00;;;;;;5036176;28;20452;-69
2021/08/11 09:55:25;;;;;;;3.67;3.37;;;37.60;49.10;;;;;;5035692;28;20478;-69
2021/08/11 09:57:54;;;;;;;3.73;3.30;;;38.90;50.80;;;;;;5035960;28;20805;-70
2021/08/11 10:00:21;;;;;;;3.50;3.30;;;39.50;46.40;;;;;;5036025;28;20469;-70
2021/08/11 10:03:03;;;;;;;4.23;3.93;;;40.60;44.20;;;;;;5035803;28;21049;-70
2021/08/11 10:05:34;;;;;;;3.63;3.43;;;41.00;42.50;;;;;;5035718;28;20539;-69
2021/08/11 10:08:02;;;;;;;3.47;3.27;;;40.10;42.50;;;;;;5035960;28;20534;-69
2021/08/11 10:10:29;;;;;;;3.93;3.63;;;39.00;42.60;;;;;;5035727;28;20466;-69
2021/08/11 10:13:07;;;;;;;4.10;3.80;;;38.30;45.50;;;;;;5035723;28;20801;-70
2021/08/11 10:15:34;;;;;;;3.83;3.53;;;36.80;48.70;;;;;;5035351;28;20854;-70
2021/08/11 10:18:02;;;;;;;3.77;3.47;;;35.20;50.90;;;;;;5035869;28;20447;-69
2021/08/11 10:20:30;;;;;;;3.73;3.43;;;33.00;53.40;;;;;;5035506;28;20547;-69
2021/08/11 10:22:57;;;;;;;4.37;3.97;;;31.20;58.40;;;;;;5035355;28;20447;-71
2021/08/11 10:25:25;;;;;;;3.83;3.53;;;30.10;62.00;;;;;;5034289;28;20442;-71
2021/08/11 10:27:52;;;;;;;4.63;4.23;;;29.10;65.90;;;;;;5035350;28;20443;-71
2021/08/11 10:30:21;;;;;;;4.10;3.70;;;28.40;69.80;;;;;;5035643;28;20469;-71
2021/08/11 10:32:48;;;;;;;4.40;3.60;;;27.70;74.20;;;;;;5035416;28;20529;-71
2021/08/11 10:35:16;;;;;;;4.07;3.77;;;27.30;77.20;;;;;;5035018;28;20479;-70
2021/08/11 10:37:43;;;;;;;3.63;3.33;;;27.50;77.50;;;;;;5035130;28;20874;-71
2021/08/11 10:40:11;;;;;;;3.60;3.30;;;27.70;77.60;;;;;;5034875;28;20554;-71
2021/08/11 10:42:38;;;;;;;3.50;3.20;;;28.30;76.80;;;;;;5035198;28;20449;-71
2021/08/11 10:45:06;;;;;;;3.70;3.37;;;29.50;73.30;;;;;;5035030;28;20446;-71
2021/08/11 10:47:35;;;;;;;3.83;3.53;;;30.00;69.00;;;;;;5035145;28;20445;-71
2021/08/11 10:50:04;;;;;;;4.73;3.73;;;29.60;71.70;;;;;;5035049;28;20480;-71
2021/08/11 10:52:32;;;;;;;4.37;3.97;;;29.10;72.20;;;;;;5034969;28;20867;-71
2021/08/11 10:55:00;;;;;;;3.87;3.40;;;28.80;74.70;;;;;;5034582;28;20449;-72
2021/08/11 10:57:48;;;;;;;4.40;3.60;;;28.50;75.40;;;;;;5034904;28;20879;-71
2021/08/11 11:00:40;;;;;;;4.33;4.00;;;28.10;78.30;;;;;;5031364;28;20996;-71
2021/08/11 11:03:08;;;;;;;3.97;3.63;;;27.40;82.70;;;;;;5034708;28;20445;-71
2021/08/11 11:06:02;;;;;;;3.80;3.40;;;27.00;82.80;;;;;;5034530;28;20435;-70
2021/08/11 11:08:33;;;;;;;3.93;3.60;;;26.70;84.70;;;;;;5034639;28;20526;-71
2021/08/11 11:11:36;;;;;;;4.13;3.73;;;26.60;87.20;;;;;;5034698;28;20478;-70
2021/08/11 11:14:05;;;;;;;4.50;4.00;;;26.40;86.60;;;;;;5034651;28;20478;-70
2021/08/11 11:17:05;;;;;;;4.63;4.10;;;26.40;90.00;;;;;;5034134;28;20537;-71
2021/08/11 11:19:32;;;;;;;4.50;4.10;;;26.40;89.10;;;;;;5032738;28;20837;-71
2021/08/11 11:22:19;;;;;;;5.20;4.70;;;26.60;93.10;;;;;;5034372;28;20457;-71
2021/08/11 11:24:50;;;;;;;5.50;5.00;;;27.00;92.10;;;;;;5034097;28;20535;-71
2021/08/11 11:27:57;;;;;;;5.10;4.50;;;27.60;91.00;;;;;;5034241;28;21015;-71
2021/08/11 11:30:37;;;;;;;4.00;3.60;;;28.10;85.60;;;;;;5034180;28;20479;-71
2021/08/11 11:33:34;;;;;;;4.73;4.23;;;28.20;79.60;;;;;;5034434;28;20443;-71
2021/08/11 11:36:24;;;;;;;3.77;3.43;;;28.30;79.80;;;;;;5033698;28;20927;-71
2021/08/11 11:39:11;;;;;;;4.03;3.73;;;28.30;81.20;;;;;;5034544;28;20550;-71
2021/08/11 11:41:39;;;;;;;4.40;4.00;;;28.30;79.80;;;;;;5034083;28;20490;-71
2021/08/11 11:44:43;;;;;;;4.47;4.07;;;28.40;81.10;;;;;;5034042;28;20449;-71
2021/08/11 11:47:12;;;;;;;5.50;4.80;;;28.30;84.00;;;;;;5034134;28;20959;-71
2021/08/11 11:49:40;;;;;;;6.03;5.43;;;27.90;83.70;;;;;;5033928;28;20469;-71
2021/08/11 11:52:13;;;;;;;5.77;5.27;;;27.50;85.30;;;;;;5033916;28;20530;-70
2021/08/11 11:54:45;;;;;;;6.77;6.20;;;27.20;87.50;;;;;;5033932;28;20486;-71
2021/08/11 11:57:13;;;;;;;4.50;4.10;;;26.80;89.60;;;;;;5033738;28;20490;-70
2021/08/11 11:59:45;;;;;;;5.67;4.90;;;26.30;90.00;;;;;;5033434;28;20466;-71
2021/08/11 12:02:19;;;;;;;5.47;4.97;;;26.30;90.90;;;;;;5033780;28;20451;-71
2021/08/11 12:04:59;;;;;;;9.90;8.90;;;26.40;91.20;;;;;;5033415;28;20482;-70
2021/08/11 12:07:29;;;;;;;5.13;4.73;;;26.30;91.50;;;;;;5033686;28;20442;-71
2021/08/11 12:09:56;;;;;;;4.73;4.20;;;26.40;90.80;;;;;;5033447;28;20468;-70
2021/08/11 12:12:23;;;;;;;6.20;4.93;;;26.50;91.20;;;;;;5033694;28;20438;-71
2021/08/11 12:14:50;;;;;;;4.83;4.43;;;26.70;90.80;;;;;;5033409;28;20443;-71
2021/08/11 12:17:31;;;;;;;4.30;3.90;;;26.80;90.20;;;;;;5033257;28;20483;-71
2021/08/11 12:19:58;;;;;;;5.07;4.57;;;27.10;89.50;;;;;;5033323;28;20473;-71
2021/08/11 12:22:32;;;;;;;5.70;4.50;;;27.20;89.00;;;;;;5033489;28;20489;-71
2021/08/11 12:24:59;;;;;;;4.13;3.73;;;27.10;89.30;;;;;;5033325;28;20445;-71
2021/08/11 12:27:26;;;;;;;6.17;3.80;;;27.00;86.30;;;;;;5033289;28;20986;-71
2021/08/11 12:30:17;;;;;;;4.90;4.40;;;27.00;89.70;;;;;;5033109;28;20471;-71
2021/08/11 12:32:46;;;;;;;4.43;3.50;;;26.90;88.90;;;;;;5033463;28;20446;-71
2021/08/11 12:35:13;;;;;;;3.80;3.50;;;26.90;89.30;;;;;;5033433;28;20443;-70
2021/08/11 12:37:46;;;;;;;4.57;4.13;;;27.00;89.70;;;;;;5033113;28;20478;-71
2021/08/11 12:40:28;;;;;;;4.77;3.87;;;27.10;87.30;;;;;;5033310;28;20471;-71
2021/08/11 12:42:55;;;;;;;4.37;3.77;;;27.20;89.50;;;;;;5033269;28;20933;-71
2021/08/11 12:45:22;;;;;;;3.53;3.27;;;27.40;86.50;;;;;;5032983;28;20454;-71
2021/08/11 12:47:51;;;;;;;3.90;3.60;;;27.40;87.80;;;;;;5033203;28;20445;-71
2021/08/11 12:50:18;;;;;;;4.13;3.77;;;27.60;85.70;;;;;;5036991;28;20544;-71
2021/08/11 12:52:55;;;;;;;4.10;3.70;;;27.70;84.50;;;;;;5037149;28;20495;-70
2021/08/11 12:55:33;;;;;;;4.70;4.20;;;27.70;85.30;;;;;;5036864;28;20476;-70
2021/08/11 12:58:00;;;;;;;4.07;3.73;;;27.50;87.10;;;;;;5036770;28;20804;-70
2021/08/11 13:00:43;;;;;;;4.37;4.00;;;27.20;86.40;;;;;;5036703;28;20982;-71